Time;durP1;ratioP1;P1;durP2;ratioP2;P2;SDS_P1;SDS_P2;PMS_P1;PMS_P2;Temp;Humidity;BMP_temperature;BMP_pressure;BME280_temperature;BME280_humidity;BME280_pressure;Samples;Min_cycle;Max_cycle;Signal;HPM_P1;HPM_P2
2023/12/13 00:02:20;;;;;;;1.83;0.90;;;;;;;;;;5043710;28;20761;-79
2023/12/13 00:04:48;;;;;;;0.90;0.90;;;;;;;;;;5042057;28;20739;-79
2023/12/13 00:07:15;;;;;;;1.40;0.97;;;;;;;;;;5043016;28;20265;-81
2023/12/13 00:09:42;;;;;;;1.60;0.70;;;;;;;;;;5046524;28;20653;-81
2023/12/13 00:12:10;;;;;;;1.13;0.77;;;;;;;;;;5044028;28;20210;-79
2023/12/13 00:14:37;;;;;;;2.23;0.80;;;;;;;;;;5024103;28;20310;-79
2023/12/13 00:17:04;;;;;;;1.63;1.53;;;;;;;;;;5043109;28;20221;-79
2023/12/13 00:19:32;;;;;;;1.07;0.90;;;;;;;;;;5046313;28;20214;-79
2023/12/13 00:21:59;;;;;;;1.37;1.00;;;;;;;;;;5023139;28;20219;-79
2023/12/13 00:24:26;;;;;;;1.33;1.23;;;;;;;;;;5025566;28;20299;-78
2023/12/13 00:26:53;;;;;;;4.33;2.57;;;;;;;;;;5037107;28;20195;-76
2023/12/13 00:29:20;;;;;;;3.43;1.97;;;;;;;;;;5046778;28;20202;-80
2023/12/13 00:31:48;;;;;;;1.67;1.43;;;;;;;;;;5039381;28;20202;-80
2023/12/13 00:34:15;;;;;;;6.40;2.90;;;;;;;;;;5036022;28;20230;-78
2023/12/13 00:36:42;;;;;;;2.00;1.50;;;;;;;;;;5038420;28;20590;-80
2023/12/13 00:39:09;;;;;;;14.13;7.73;;;;;;;;;;5028918;28;20809;-76
2023/12/13 00:41:36;;;;;;;7.57;3.53;;;;;;;;;;5039727;28;20325;-80
2023/12/13 00:44:04;;;;;;;7.90;4.57;;;;;;;;;;5028975;28;20650;-78
2023/12/13 00:46:31;;;;;;;1.37;1.10;;;;;;;;;;5045316;28;20206;-80
2023/12/13 00:48:58;;;;;;;1.60;1.00;;;;;;;;;;5039549;28;20261;-80
2023/12/13 00:51:26;;;;;;;2.93;1.77;;;;;;;;;;5039591;28;20206;-80
2023/12/13 00:53:53;;;;;;;3.47;1.70;;;;;;;;;;5040327;28;20276;-79
2023/12/13 00:56:21;;;;;;;6.00;3.40;;;;;;;;;;5046729;28;20267;-81
2023/12/13 00:58:48;;;;;;;23.40;10.57;;;;;;;;;;5029069;28;20194;-80
2023/12/13 01:01:16;;;;;;;6.33;3.37;;;;;;;;;;5046849;28;20206;-77
2023/12/13 01:03:44;;;;;;;4.20;2.27;;;;;;;;;;5044596;28;20214;-79
2023/12/13 01:06:11;;;;;;;11.90;5.17;;;;;;;;;;5046408;28;20207;-79
2023/12/13 01:08:38;;;;;;;24.77;9.60;;;;;;;;;;5048356;28;20243;-79
2023/12/13 01:11:10;;;;;;;3.60;1.70;;;;;;;;;;5040804;28;20221;-79
2023/12/13 01:13:38;;;;;;;3.67;1.40;;;;;;;;;;5041503;28;20303;-79
2023/12/13 01:16:05;;;;;;;3.10;1.20;;;;;;;;;;5026974;28;20203;-80
2023/12/13 01:18:33;;;;;;;3.13;1.50;;;;;;;;;;5041831;28;20671;-80
2023/12/13 01:21:01;;;;;;;3.27;1.50;;;;;;;;;;5046227;28;20578;-81
2023/12/13 01:23:28;;;;;;;2.93;1.20;;;;;;;;;;5041148;28;20253;-79
2023/12/13 01:25:55;;;;;;;3.50;1.00;;;;;;;;;;5041991;28;20199;-77
2023/12/13 01:28:22;;;;;;;3.07;1.30;;;;;;;;;;5045874;28;20202;-81
2023/12/13 01:30:52;;;;;;;4.57;1.33;;;;;;;;;;5028089;28;20233;-79
2023/12/13 01:33:19;;;;;;;4.10;1.30;;;;;;;;;;5031930;28;20340;-81
2023/12/13 01:35:47;;;;;;;1.87;1.00;;;;;;;;;;5043834;28;20668;-80
2023/12/13 01:38:14;;;;;;;1.40;1.00;;;;;;;;;;5039043;28;20198;-81
2023/12/13 01:40:51;;;;;;;1.00;1.00;;;;;;;;;;5044795;28;20203;-80
2023/12/13 01:43:38;;;;;;;2.73;1.10;;;;;;;;;;5045331;28;20226;-79
2023/12/13 01:46:05;;;;;;;4.30;1.70;;;;;;;;;;5044722;28;20203;-81
2023/12/13 01:48:33;;;;;;;5.83;3.07;;;;;;;;;;5044931;28;20207;-78
2023/12/13 01:51:00;;;;;;;8.07;4.80;;;;;;;;;;5044828;28;20243;-79
2023/12/13 01:53:27;;;;;;;3.53;2.37;;;;;;;;;;5041710;28;20230;-76
2023/12/13 01:55:55;;;;;;;2.50;1.47;;;;;;;;;;5046410;28;20271;-80
2023/12/13 01:58:23;;;;;;;4.47;1.80;;;;;;;;;;5042383;28;20561;-78
2023/12/13 02:00:52;;;;;;;4.13;1.70;;;;;;;;;;5038486;28;20238;-81
2023/12/13 02:03:20;;;;;;;2.77;1.80;;;;;;;;;;5038629;28;20226;-79
2023/12/13 02:05:48;;;;;;;3.50;2.73;;;;;;;;;;5040174;28;21586;-80
2023/12/13 02:08:16;;;;;;;3.50;3.20;;;;;;;;;;5039647;28;20208;-78
2023/12/13 02:10:43;;;;;;;5.57;2.87;;;;;;;;;;5027162;28;20198;-79
2023/12/13 02:13:11;;;;;;;2.13;1.93;;;;;;;;;;5042986;28;20257;-78
2023/12/13 02:15:39;;;;;;;3.20;1.17;;;;;;;;;;5042739;28;20260;-77
2023/12/13 02:18:09;;;;;;;1.20;1.00;;;;;;;;;;5042553;28;20632;-80
2023/12/13 02:20:37;;;;;;;1.20;0.90;;;;;;;;;;5044405;28;20203;-80
2023/12/13 02:23:04;;;;;;;1.00;0.87;;;;;;;;;;5027990;28;20238;-78
2023/12/13 02:25:47;;;;;;;2.03;0.97;;;;;;;;;;5038544;28;20203;-79
2023/12/13 02:28:15;;;;;;;1.40;1.00;;;;;;;;;;5037854;28;20210;-78
2023/12/13 02:30:43;;;;;;;2.00;0.90;;;;;;;;;;5029819;28;20696;-81
2023/12/13 02:33:11;;;;;;;0.83;0.80;;;;;;;;;;5027647;28;20225;-79
2023/12/13 02:35:38;;;;;;;1.53;0.83;;;;;;;;;;5024405;28;20201;-80
2023/12/13 02:38:05;;;;;;;0.97;0.90;;;;;;;;;;5046889;28;20206;-77
2023/12/13 02:40:32;;;;;;;0.97;0.83;;;;;;;;;;5038222;28;20202;-79
2023/12/13 02:42:59;;;;;;;2.90;0.90;;;;;;;;;;5040534;28;20306;-77
2023/12/13 02:45:27;;;;;;;1.47;0.80;;;;;;;;;;5055296;28;20218;-79
2023/12/13 02:47:56;;;;;;;1.40;0.77;;;;;;;;;;5060951;28;20190;-78
2023/12/13 02:50:23;;;;;;;1.00;1.00;;;;;;;;;;5050920;28;20194;-79
2023/12/13 02:52:50;;;;;;;0.90;0.90;;;;;;;;;;5068260;28;20207;-78
2023/12/13 02:55:18;;;;;;;0.90;0.90;;;;;;;;;;5064551;28;20212;-75
2023/12/13 02:57:45;;;;;;;1.17;0.73;;;;;;;;;;5043257;28;20281;-80
2023/12/13 03:00:13;;;;;;;0.80;0.80;;;;;;;;;;5044420;28;20633;-79
2023/12/13 03:02:40;;;;;;;0.80;0.80;;;;;;;;;;5038731;28;20280;-77
2023/12/13 03:05:08;;;;;;;0.80;0.80;;;;;;;;;;5041625;28;20194;-80
2023/12/13 03:07:35;;;;;;;0.80;0.80;;;;;;;;;;5028641;28;20221;-79
2023/12/13 03:10:03;;;;;;;0.70;0.70;;;;;;;;;;5044762;28;20195;-81
2023/12/13 03:12:30;;;;;;;1.50;1.20;;;;;;;;;;5039118;28;20206;-79
2023/12/13 03:14:57;;;;;;;0.70;0.70;;;;;;;;;;5021136;28;20241;-80
2023/12/13 03:17:25;;;;;;;0.70;0.70;;;;;;;;;;5036817;28;20203;-80
2023/12/13 03:19:52;;;;;;;0.73;0.73;;;;;;;;;;5039473;28;20222;-79
2023/12/13 03:22:19;;;;;;;1.13;0.80;;;;;;;;;;5040244;28;20603;-79
2023/12/13 03:24:46;;;;;;;0.67;0.67;;;;;;;;;;5044123;28;20324;-80
2023/12/13 03:27:14;;;;;;;2.50;0.80;;;;;;;;;;5044276;28;20194;-80
2023/12/13 03:29:41;;;;;;;1.63;1.03;;;;;;;;;;5042134;28;20206;-81
2023/12/13 03:32:08;;;;;;;0.70;0.70;;;;;;;;;;5021944;28;20194;-79
2023/12/13 03:34:35;;;;;;;0.80;0.80;;;;;;;;;;5043828;28;20222;-80
2023/12/13 03:37:06;;;;;;;0.80;0.80;;;;;;;;;;5037003;28;20203;-78
2023/12/13 03:39:34;;;;;;;0.80;0.77;;;;;;;;;;5022917;28;20210;-79
2023/12/13 03:42:01;;;;;;;0.90;0.90;;;;;;;;;;5045921;28;20565;-79
2023/12/13 03:44:28;;;;;;;0.77;0.77;;;;;;;;;;5044521;28;20222;-79
2023/12/13 03:46:55;;;;;;;1.17;0.77;;;;;;;;;;5024281;28;20207;-81
2023/12/13 03:49:23;;;;;;;0.90;0.90;;;;;;;;;;5041024;28;20228;-79
2023/12/13 03:51:50;;;;;;;0.90;0.90;;;;;;;;;;5042783;28;20202;-79
2023/12/13 03:54:18;;;;;;;0.93;0.93;;;;;;;;;;5037971;28;20273;-77
2023/12/13 03:56:45;;;;;;;0.70;0.70;;;;;;;;;;5036183;28;20623;-80
2023/12/13 03:59:12;;;;;;;0.73;0.73;;;;;;;;;;5038970;28;20214;-79
2023/12/13 04:01:39;;;;;;;0.70;0.70;;;;;;;;;;5038602;28;20679;-80
2023/12/13 04:04:06;;;;;;;0.80;0.80;;;;;;;;;;5040984;28;23679;-81
2023/12/13 04:06:34;;;;;;;0.87;0.87;;;;;;;;;;5044451;28;20194;-80
2023/12/13 04:09:01;;;;;;;1.40;1.00;;;;;;;;;;5041344;28;20440;-81
2023/12/13 04:11:28;;;;;;;1.30;1.10;;;;;;;;;;5037931;28;20207;-79
2023/12/13 04:13:56;;;;;;;3.07;2.77;;;;;;;;;;5043345;28;20226;-79
2023/12/13 04:16:23;;;;;;;1.37;1.30;;;;;;;;;;5037797;28;20210;-77
2023/12/13 04:18:50;;;;;;;1.73;1.10;;;;;;;;;;5043539;28;20664;-78
2023/12/13 04:21:17;;;;;;;1.00;1.00;;;;;;;;;;5042902;28;20202;-80
2023/12/13 04:23:45;;;;;;;1.50;1.00;;;;;;;;;;5027824;28;20227;-79
2023/12/13 04:26:12;;;;;;;1.07;1.07;;;;;;;;;;5042568;28;20234;-75
2023/12/13 04:28:39;;;;;;;1.20;1.20;;;;;;;;;;5050966;28;20210;-78
2023/12/13 04:31:06;;;;;;;1.40;1.30;;;;;;;;;;5029488;28;20664;-78
2023/12/13 04:33:35;;;;;;;1.40;1.33;;;;;;;;;;5036425;28;20303;-78
2023/12/13 04:36:02;;;;;;;2.53;2.07;;;;;;;;;;5051921;28;20213;-79
2023/12/13 04:38:30;;;;;;;4.10;1.50;;;;;;;;;;5041308;28;20210;-78
2023/12/13 04:40:57;;;;;;;1.73;1.63;;;;;;;;;;5031288;28;20727;-78
2023/12/13 04:43:25;;;;;;;2.10;1.57;;;;;;;;;;5047963;28;20317;-75
2023/12/13 04:45:52;;;;;;;1.87;1.70;;;;;;;;;;5041666;28;20209;-78
2023/12/13 04:48:19;;;;;;;2.20;1.67;;;;;;;;;;5046548;28;20615;-78
2023/12/13 04:50:47;;;;;;;2.20;1.60;;;;;;;;;;5048256;28;20247;-79
2023/12/13 04:53:14;;;;;;;2.63;2.10;;;;;;;;;;5043246;28;20290;-77
2023/12/13 04:55:41;;;;;;;4.00;3.23;;;;;;;;;;5039104;28;20693;-79
2023/12/13 04:58:08;;;;;;;4.80;2.20;;;;;;;;;;5028169;28;20228;-80
2023/12/13 05:00:36;;;;;;;2.53;2.30;;;;;;;;;;5039432;28;20620;-79
2023/12/13 05:03:03;;;;;;;6.83;1.93;;;;;;;;;;5041951;28;20235;-80
2023/12/13 05:05:30;;;;;;;2.03;1.87;;;;;;;;;;5045616;28;20694;-80
2023/12/13 05:07:57;;;;;;;2.63;1.90;;;;;;;;;;5041478;28;20480;-81
2023/12/13 05:10:26;;;;;;;4.43;2.10;;;;;;;;;;5018363;28;20252;-77
2023/12/13 05:12:53;;;;;;;1.87;1.70;;;;;;;;;;5036697;28;20230;-78
2023/12/13 05:15:20;;;;;;;2.70;1.60;;;;;;;;;;5034788;28;20218;-79
2023/12/13 05:17:54;;;;;;;5.23;1.87;;;;;;;;;;5045018;28;20191;-80
2023/12/13 05:20:21;;;;;;;3.77;2.17;;;;;;;;;;5043713;28;20302;-78
2023/12/13 05:22:50;;;;;;;2.77;2.43;;;;;;;;;;5053974;28;20781;-77
2023/12/13 05:25:23;;;;;;;4.33;2.47;;;;;;;;;;5057701;28;20672;-77
2023/12/13 05:27:51;;;;;;;7.23;3.70;;;;;;;;;;5051522;28;20265;-80
2023/12/13 05:30:19;;;;;;;4.43;4.10;;;;;;;;;;5060577;28;20221;-80
2023/12/13 05:32:47;;;;;;;7.57;4.10;;;;;;;;;;5060691;28;20275;-79
2023/12/13 05:35:14;;;;;;;4.13;3.73;;;;;;;;;;5056835;28;20207;-78
2023/12/13 05:37:42;;;;;;;7.13;5.40;;;;;;;;;;5042723;28;20294;-76
2023/12/13 05:40:09;;;;;;;6.13;3.83;;;;;;;;;;5042973;28;20202;-78
2023/12/13 05:42:36;;;;;;;6.17;4.20;;;;;;;;;;5042768;28;20211;-76
2023/12/13 05:45:04;;;;;;;8.27;4.33;;;;;;;;;;5035562;28;20357;-79
2023/12/13 05:47:31;;;;;;;4.07;3.70;;;;;;;;;;5040790;28;20253;-79
2023/12/13 05:49:58;;;;;;;8.80;3.70;;;;;;;;;;5034306;28;20229;-79
2023/12/13 05:52:27;;;;;;;5.97;3.30;;;;;;;;;;5043027;28;20252;-76
2023/12/13 05:54:55;;;;;;;7.13;3.30;;;;;;;;;;5045796;28;20234;-80
2023/12/13 05:57:23;;;;;;;6.27;3.20;;;;;;;;;;5036562;28;20239;-82
2023/12/13 05:59:50;;;;;;;4.53;3.40;;;;;;;;;;5026798;28;20747;-77
2023/12/13 06:02:17;;;;;;;6.37;4.37;;;;;;;;;;5047849;28;20526;-78
2023/12/13 06:04:45;;;;;;;7.33;3.47;;;;;;;;;;5037377;28;20313;-81
2023/12/13 06:07:12;;;;;;;6.23;3.07;;;;;;;;;;5042859;28;20198;-78
2023/12/13 06:09:43;;;;;;;6.47;4.00;;;;;;;;;;5040421;28;20442;-77
2023/12/13 06:12:11;;;;;;;5.53;3.97;;;;;;;;;;5046174;28;20687;-78
2023/12/13 06:14:38;;;;;;;5.83;3.63;;;;;;;;;;5026284;28;20217;-78
2023/12/13 06:17:05;;;;;;;6.03;3.80;;;;;;;;;;5023515;28;20210;-79
2023/12/13 06:19:33;;;;;;;4.23;3.73;;;;;;;;;;5043781;28;20285;-79
2023/12/13 06:22:00;;;;;;;5.23;3.70;;;;;;;;;;5026135;28;20237;-80
2023/12/13 06:24:27;;;;;;;5.50;3.60;;;;;;;;;;5037040;28;20234;-77
2023/12/13 06:26:55;;;;;;;5.80;3.70;;;;;;;;;;5020120;28;20203;-79
2023/12/13 06:29:22;;;;;;;6.27;3.00;;;;;;;;;;5048741;28;20214;-77
2023/12/13 06:31:49;;;;;;;6.13;3.40;;;;;;;;;;5046815;28;20273;-77
2023/12/13 06:34:19;;;;;;;6.37;3.23;;;;;;;;;;5043248;28;20222;-79
2023/12/13 06:36:47;;;;;;;4.33;3.20;;;;;;;;;;5041264;28;20199;-78
2023/12/13 06:39:15;;;;;;;4.00;3.50;;;;;;;;;;5026351;28;20210;-81
2023/12/13 06:41:42;;;;;;;7.03;3.50;;;;;;;;;;5044142;28;20616;-79
2023/12/13 06:44:09;;;;;;;6.27;3.97;;;;;;;;;;5047138;28;20249;-79
2023/12/13 06:46:36;;;;;;;3.80;3.17;;;;;;;;;;5039591;28;20248;-78
2023/12/13 06:49:04;;;;;;;6.30;4.03;;;;;;;;;;5035627;28;20210;-79
2023/12/13 06:51:32;;;;;;;7.20;3.50;;;;;;;;;;5042438;28;20237;-78
2023/12/13 06:53:59;;;;;;;5.77;3.87;;;;;;;;;;5035392;28;20602;-79
2023/12/13 06:56:28;;;;;;;6.57;3.27;;;;;;;;;;5033852;28;20206;-79
2023/12/13 06:58:55;;;;;;;6.40;3.20;;;;;;;;;;5037695;28;20660;-78
2023/12/13 07:01:22;;;;;;;5.27;3.20;;;;;;;;;;5041320;28;20281;-77
2023/12/13 07:03:50;;;;;;;4.50;2.80;;;;;;;;;;5019233;28;20914;-77
2023/12/13 07:06:18;;;;;;;4.90;2.70;;;;;;;;;;5040575;28;20202;-80
2023/12/13 07:08:45;;;;;;;5.87;3.17;;;;;;;;;;5040548;28;20211;-78
2023/12/13 07:11:13;;;;;;;5.67;3.70;;;;;;;;;;5039001;28;20560;-79
2023/12/13 07:13:40;;;;;;;4.67;3.20;;;;;;;;;;5026906;28;20229;-78
2023/12/13 07:16:08;;;;;;;8.87;4.07;;;;;;;;;;5023627;28;20257;-81
2023/12/13 07:18:35;;;;;;;4.90;3.60;;;;;;;;;;5026716;28;20210;-78
2023/12/13 07:21:03;;;;;;;7.90;4.80;;;;;;;;;;5020622;28;20242;-76
2023/12/13 07:23:31;;;;;;;8.57;3.90;;;;;;;;;;5039240;28;20229;-78
2023/12/13 07:25:59;;;;;;;6.33;3.93;;;;;;;;;;5023068;28;20198;-80
2023/12/13 07:28:26;;;;;;;10.90;4.43;;;;;;;;;;5034780;28;20206;-78
2023/12/13 07:30:55;;;;;;;6.83;3.60;;;;;;;;;;5036674;28;20725;-77
2023/12/13 07:33:37;;;;;;;8.30;4.27;;;;;;;;;;5023700;28;20234;-79
2023/12/13 07:36:05;;;;;;;5.40;4.20;;;;;;;;;;5040669;28;20207;-78
2023/12/13 07:38:32;;;;;;;5.90;4.07;;;;;;;;;;5041244;28;20665;-76
2023/12/13 07:40:59;;;;;;;4.20;3.40;;;;;;;;;;5021576;28;20252;-78
2023/12/13 07:43:28;;;;;;;5.73;3.90;;;;;;;;;;5043175;28;20303;-78
2023/12/13 07:45:55;;;;;;;5.30;4.50;;;;;;;;;;5018534;28;20230;-79
2023/12/13 07:48:23;;;;;;;8.13;6.27;;;;;;;;;;5022678;28;20826;-78
2023/12/13 07:50:58;;;;;;;8.00;4.57;;;;;;;;;;5041634;28;20621;-78
2023/12/13 07:53:25;;;;;;;8.30;4.50;;;;;;;;;;5033795;28;20261;-77
2023/12/13 07:55:53;;;;;;;5.60;4.00;;;;;;;;;;5032170;28;20214;-79
2023/12/13 07:58:20;;;;;;;6.67;4.00;;;;;;;;;;5058095;28;20693;-76
2023/12/13 08:00:48;;;;;;;9.23;4.07;;;;;;;;;;5045606;28;20274;-80
2023/12/13 08:03:15;;;;;;;7.40;4.03;;;;;;;;;;5039996;28;20536;-79
2023/12/13 08:05:42;;;;;;;7.30;3.70;;;;;;;;;;5022381;28;20597;-78
2023/12/13 08:08:10;;;;;;;6.23;3.83;;;;;;;;;;5039797;28;20224;-79
2023/12/13 08:10:37;;;;;;;8.33;4.73;;;;;;;;;;5039270;28;20260;-79
2023/12/13 08:13:04;;;;;;;10.23;4.80;;;;;;;;;;5030705;28;20588;-77
2023/12/13 08:15:31;;;;;;;5.80;4.50;;;;;;;;;;5037555;28;20685;-78
2023/12/13 08:17:59;;;;;;;9.73;5.90;;;;;;;;;;5040321;28;20202;-78
2023/12/13 08:20:29;;;;;;;5.13;4.40;;;;;;;;;;5034828;28;20210;-79
2023/12/13 08:22:57;;;;;;;6.03;4.40;;;;;;;;;;5038293;28;20286;-80
2023/12/13 08:25:25;;;;;;;4.73;4.10;;;;;;;;;;5040298;28;20226;-81
2023/12/13 08:27:53;;;;;;;7.20;4.30;;;;;;;;;;5041589;28;20262;-78
2023/12/13 08:30:21;;;;;;;8.27;4.17;;;;;;;;;;5040611;28;20233;-76
2023/12/13 08:32:49;;;;;;;7.43;4.70;;;;;;;;;;5038828;28;20278;-75
2023/12/13 08:35:16;;;;;;;6.27;4.27;;;;;;;;;;5019751;28;20213;-79
2023/12/13 08:37:45;;;;;;;7.87;5.13;;;;;;;;;;5027038;28;20261;-77
2023/12/13 08:40:13;;;;;;;9.37;5.57;;;;;;;;;;5034881;28;20206;-77
2023/12/13 08:42:41;;;;;;;14.43;6.30;;;;;;;;;;5035291;28;20687;-76
2023/12/13 08:45:12;;;;;;;7.20;5.67;;;;;;;;;;5030010;28;20229;-78
2023/12/13 08:47:40;;;;;;;8.73;4.83;;;;;;;;;;5013870;28;20625;-79
2023/12/13 08:50:07;;;;;;;5.53;4.67;;;;;;;;;;5035691;28;20231;-79
2023/12/13 08:52:37;;;;;;;9.90;5.23;;;;;;;;;;5039507;28;20210;-78
2023/12/13 08:55:06;;;;;;;6.50;4.80;;;;;;;;;;5008056;28;20367;-78
2023/12/13 08:57:34;;;;;;;6.73;4.70;;;;;;;;;;5027150;28;20218;-79
2023/12/13 09:00:02;;;;;;;3.53;3.10;;;;;;;;;;5017070;28;20586;-79
2023/12/13 09:02:37;;;;;;;4.97;3.80;;;;;;;;;;5031766;28;20213;-80
2023/12/13 09:05:04;;;;;;;6.37;4.40;;;;;;;;;;5026272;28;20245;-78
2023/12/13 09:07:32;;;;;;;5.77;4.27;;;;;;;;;;5032906;28;20257;-79
2023/12/13 09:10:00;;;;;;;4.87;4.47;;;;;;;;;;5048127;28;20203;-78
2023/12/13 09:12:28;;;;;;;5.00;4.43;;;;;;;;;;5050368;28;20434;-80
2023/12/13 09:14:55;;;;;;;4.60;4.20;;;;;;;;;;5047615;28;20228;-80
2023/12/13 09:17:22;;;;;;;4.00;3.63;;;;;;;;;;5026766;28;20205;-79
2023/12/13 09:19:49;;;;;;;5.47;3.60;;;;;;;;;;5037267;28;20260;-78
2023/12/13 09:22:17;;;;;;;4.00;3.70;;;;;;;;;;5024255;28;20210;-80
2023/12/13 09:24:45;;;;;;;3.70;3.40;;;;;;;;;;5043624;28;20257;-78
2023/12/13 09:27:12;;;;;;;4.30;3.50;;;;;;;;;;5038175;28;20598;-77
2023/12/13 09:29:39;;;;;;;5.13;4.63;;;;;;;;;;5045638;28;20218;-81
2023/12/13 09:32:07;;;;;;;4.47;3.90;;;;;;;;;;5015501;28;20244;-78
2023/12/13 09:34:35;;;;;;;5.47;4.70;;;;;;;;;;5036997;28;20222;-78
2023/12/13 09:37:02;;;;;;;4.40;4.00;;;;;;;;;;5033179;28;20217;-79
2023/12/13 09:39:30;;;;;;;4.10;3.80;;;;;;;;;;5030887;28;20226;-78
2023/12/13 09:42:00;;;;;;;4.10;3.70;;;;;;;;;;5034106;28;20256;-79
2023/12/13 09:44:29;;;;;;;5.53;3.57;;;;;;;;;;5017457;28;20293;-77
2023/12/13 09:46:58;;;;;;;5.00;3.77;;;;;;;;;;5032818;28;20214;-82
2023/12/13 09:49:26;;;;;;;3.93;3.57;;;;;;;;;;5025565;28;20206;-80
2023/12/13 09:52:05;;;;;;;3.97;3.50;;;;;;;;;;5039171;28;20193;-79
2023/12/13 09:54:34;;;;;;;4.20;3.67;;;;;;;;;;5040119;28;20314;-80
2023/12/13 09:57:04;;;;;;;3.90;3.30;;;;;;;;;;5039399;28;20199;-80
2023/12/13 09:59:32;;;;;;;3.20;3.00;;;;;;;;;;5032610;28;20203;-80
2023/12/13 10:01:59;;;;;;;3.17;2.93;;;;;;;;;;5038465;28;20559;-79
2023/12/13 10:04:28;;;;;;;3.17;2.90;;;;;;;;;;5041799;28;20316;-80
2023/12/13 10:06:55;;;;;;;3.30;3.03;;;;;;;;;;5025916;28;20677;-79
2023/12/13 10:09:27;;;;;;;3.50;3.20;;;;;;;;;;5042301;28;20673;-79
2023/12/13 10:12:00;;;;;;;3.00;2.80;;;;;;;;;;5040290;28;20203;-78
2023/12/13 10:14:29;;;;;;;3.00;2.73;;;;;;;;;;5032855;28;20222;-80
2023/12/13 10:16:57;;;;;;;2.70;2.50;;;;;;;;;;5023945;28;20637;-79
2023/12/13 10:19:38;;;;;;;3.80;2.40;;;;;;;;;;5031702;28;20234;-78
2023/12/13 10:22:05;;;;;;;2.20;2.10;;;;;;;;;;5030000;28;20646;-80
2023/12/13 10:24:33;;;;;;;2.57;2.37;;;;;;;;;;5040163;28;20232;-78
2023/12/13 10:27:01;;;;;;;1.77;1.67;;;;;;;;;;5046478;28;20253;-78
2023/12/13 10:29:30;;;;;;;1.80;1.70;;;;;;;;;;5040982;28;20218;-80
2023/12/13 10:31:59;;;;;;;2.70;2.10;;;;;;;;;;5042766;28;20208;-79
2023/12/13 10:34:27;;;;;;;4.00;2.23;;;;;;;;;;5021772;28;20764;-80
2023/12/13 10:36:55;;;;;;;2.87;1.70;;;;;;;;;;5038194;28;20280;-78
2023/12/13 10:39:27;;;;;;;2.13;1.97;;;;;;;;;;5041177;28;20686;-80
2023/12/13 10:41:56;;;;;;;1.87;1.77;;;;;;;;;;5022193;28;20206;-80
2023/12/13 10:44:24;;;;;;;2.10;1.90;;;;;;;;;;5039319;28;20230;-77
2023/12/13 10:46:58;;;;;;;2.50;2.00;;;;;;;;;;5034889;28;20202;-79
2023/12/13 10:49:26;;;;;;;2.10;2.00;;;;;;;;;;5035813;28;20206;-77
2023/12/13 10:51:54;;;;;;;2.27;2.17;;;;;;;;;;5024950;28;20286;-79
2023/12/13 10:54:21;;;;;;;2.20;2.10;;;;;;;;;;5040332;28;20218;-80
2023/12/13 10:56:49;;;;;;;2.30;2.07;;;;;;;;;;5038523;28;20208;-82
2023/12/13 10:59:17;;;;;;;2.20;1.60;;;;;;;;;;5034455;28;20215;-80
2023/12/13 11:01:46;;;;;;;15.27;9.40;;;;;;;;;;5041249;28;20270;-80
2023/12/13 11:04:16;;;;;;;10.90;7.53;;;;;;;;;;5038141;28;20254;-80
2023/12/13 11:06:46;;;;;;;10.83;6.30;;;;;;;;;;5040392;28;20651;-77
2023/12/13 11:09:13;;;;;;;2.10;1.90;;;;;;;;;;5041874;28;20221;-80
2023/12/13 11:11:44;;;;;;;2.80;2.60;;;;;;;;;;5033700;28;20209;-78
2023/12/13 11:14:15;;;;;;;1.47;1.10;;;;;;;;;;5040721;28;20237;-80
2023/12/13 11:16:45;;;;;;;1.20;1.20;;;;;;;;;;5020647;28;20298;-79
2023/12/13 11:19:18;;;;;;;1.00;1.00;;;;;;;;;;5045851;28;20206;-80
2023/12/13 11:21:46;;;;;;;2.70;2.10;;;;;;;;;;5034569;28;20395;-77
2023/12/13 11:24:16;;;;;;;1.00;1.00;;;;;;;;;;5036152;28;20234;-78
2023/12/13 11:26:45;;;;;;;0.90;0.90;;;;;;;;;;5043759;28;20282;-78
2023/12/13 11:29:14;;;;;;;4.60;3.77;;;;;;;;;;5019458;28;20310;-79
2023/12/13 11:31:50;;;;;;;2.80;2.23;;;;;;;;;;5040687;28;20202;-78
2023/12/13 11:34:21;;;;;;;3.23;2.40;;;;;;;;;;5040779;28;21741;-77
2023/12/13 11:36:48;;;;;;;1.00;1.00;;;;;;;;;;5039632;28;20621;-77
2023/12/13 11:39:16;;;;;;;2.10;2.00;;;;;;;;;;5037230;28;21227;-76
2023/12/13 11:41:43;;;;;;;2.37;2.20;;;;;;;;;;5042225;28;20201;-77
2023/12/13 11:44:12;;;;;;;2.53;1.10;;;;;;;;;;5042825;28;20637;-76
2023/12/13 11:46:39;;;;;;;1.63;0.90;;;;;;;;;;5039957;28;20206;-79
2023/12/13 11:49:06;;;;;;;0.87;0.87;;;;;;;;;;5026740;28;20193;-78
2023/12/13 11:51:33;;;;;;;0.80;0.80;;;;;;;;;;5039950;28;20202;-79
2023/12/13 11:54:00;;;;;;;1.50;0.90;;;;;;;;;;5023897;28;20696;-79
2023/12/13 11:56:28;;;;;;;1.20;1.20;;;;;;;;;;5024626;28;20228;-81
2023/12/13 11:58:55;;;;;;;1.73;1.63;;;;;;;;;;5046519;28;20206;-78
2023/12/13 12:01:22;;;;;;;1.40;1.33;;;;;;;;;;5035400;28;21518;-79
2023/12/13 12:03:50;;;;;;;1.70;1.60;;;;;;;;;;5041107;28;20656;-80
2023/12/13 12:06:18;;;;;;;1.77;1.50;;;;;;;;;;5038271;28;20233;-79
2023/12/13 12:08:46;;;;;;;1.17;1.17;;;;;;;;;;5038289;28;20702;-80
2023/12/13 12:11:13;;;;;;;1.30;1.30;;;;;;;;;;5036670;28;20199;-77
2023/12/13 12:13:44;;;;;;;1.00;1.00;;;;;;;;;;5022017;28;20222;-79
2023/12/13 12:16:11;;;;;;;1.10;1.10;;;;;;;;;;5021680;28;20205;-79
2023/12/13 12:18:39;;;;;;;1.20;1.20;;;;;;;;;;5029918;28;20586;-76
2023/12/13 12:21:08;;;;;;;1.00;1.00;;;;;;;;;;5040968;28;20455;-79
2023/12/13 12:23:36;;;;;;;1.23;1.13;;;;;;;;;;5024470;28;20349;-79
2023/12/13 12:26:11;;;;;;;1.03;0.97;;;;;;;;;;5041205;28;20726;-78
2023/12/13 12:28:39;;;;;;;0.80;0.80;;;;;;;;;;5041014;28;20340;-79
2023/12/13 12:31:11;;;;;;;0.80;0.80;;;;;;;;;;5038279;28;20214;-79
2023/12/13 12:33:43;;;;;;;0.90;0.90;;;;;;;;;;5039497;28;20302;-78
2023/12/13 12:36:11;;;;;;;0.80;0.80;;;;;;;;;;5044694;28;20256;-79
2023/12/13 12:38:39;;;;;;;1.40;1.30;;;;;;;;;;5036229;28;20219;-77
2023/12/13 12:41:07;;;;;;;4.00;2.80;;;;;;;;;;5043974;28;20209;-79
2023/12/13 12:43:37;;;;;;;10.53;7.17;;;;;;;;;;5033385;28;20284;-78
2023/12/13 12:46:05;;;;;;;11.17;7.87;;;;;;;;;;5033591;28;20354;-80
2023/12/13 12:48:33;;;;;;;8.57;6.77;;;;;;;;;;5041401;28;20213;-78
2023/12/13 12:51:01;;;;;;;6.40;4.93;;;;;;;;;;5038019;28;20207;-78
2023/12/13 12:53:28;;;;;;;6.40;5.27;;;;;;;;;;5036989;28;20234;-78
2023/12/13 12:55:56;;;;;;;4.80;4.27;;;;;;;;;;5045035;28;20457;-83
2023/12/13 12:58:24;;;;;;;4.77;4.23;;;;;;;;;;5043728;28;20857;-80
2023/12/13 13:00:52;;;;;;;5.57;4.27;;;;;;;;;;5035928;28;20703;-80
2023/12/13 13:03:20;;;;;;;2.37;2.17;;;;;;;;;;5041844;28;20272;-78
2023/12/13 13:05:48;;;;;;;1.67;1.57;;;;;;;;;;5043778;28;20268;-79
2023/12/13 13:08:15;;;;;;;1.40;1.30;;;;;;;;;;5039641;28;20656;-78
2023/12/13 13:10:42;;;;;;;1.27;1.13;;;;;;;;;;5041644;28;20263;-79
2023/12/13 13:13:10;;;;;;;1.73;1.20;;;;;;;;;;5047594;28;20269;-78
2023/12/13 13:15:38;;;;;;;1.27;1.00;;;;;;;;;;5045479;28;20210;-79
2023/12/13 13:18:05;;;;;;;1.17;1.17;;;;;;;;;;5045414;28;20684;-79
2023/12/13 13:20:34;;;;;;;1.20;1.20;;;;;;;;;;5037593;28;20694;-82
2023/12/13 13:23:04;;;;;;;1.20;1.20;;;;;;;;;;5027809;28;20664;-80
2023/12/13 13:25:32;;;;;;;1.00;1.00;;;;;;;;;;5041088;28;20317;-77
2023/12/13 13:28:00;;;;;;;1.00;1.00;;;;;;;;;;5036476;28;20203;-78
2023/12/13 13:30:27;;;;;;;1.10;1.10;;;;;;;;;;5040400;28;21462;-79
2023/12/13 13:32:55;;;;;;;1.80;1.10;;;;;;;;;;5038805;28;20622;-77
2023/12/13 13:35:24;;;;;;;1.57;1.40;;;;;;;;;;5020116;28;20214;-79
2023/12/13 13:37:52;;;;;;;1.40;1.40;;;;;;;;;;5037796;28;20225;-81
2023/12/13 13:40:21;;;;;;;2.63;2.30;;;;;;;;;;5048925;28;20264;-79
2023/12/13 13:42:51;;;;;;;2.40;1.70;;;;;;;;;;5025094;28;20264;-79
2023/12/13 13:45:19;;;;;;;2.67;1.80;;;;;;;;;;5042965;28;20774;-80
2023/12/13 13:47:46;;;;;;;1.57;1.40;;;;;;;;;;5048817;28;20245;-82
2023/12/13 13:50:15;;;;;;;1.60;1.50;;;;;;;;;;5046000;28;20256;-81
2023/12/13 13:52:43;;;;;;;1.23;1.20;;;;;;;;;;5035329;28;20201;-80
2023/12/13 13:55:10;;;;;;;2.73;2.13;;;;;;;;;;5021383;28;20234;-76
2023/12/13 13:57:38;;;;;;;4.33;1.90;;;;;;;;;;5044764;28;20202;-78
2023/12/13 14:00:10;;;;;;;4.60;3.07;;;;;;;;;;5037659;28;20281;-77
2023/12/13 14:02:37;;;;;;;3.00;2.10;;;;;;;;;;5036287;28;20690;-78
2023/12/13 14:05:08;;;;;;;2.47;2.07;;;;;;;;;;5034577;28;20941;-79
2023/12/13 14:07:43;;;;;;;3.07;1.70;;;;;;;;;;5025532;28;20202;-81
2023/12/13 14:10:16;;;;;;;1.37;1.27;;;;;;;;;;5020677;28;20289;-80
2023/12/13 14:12:43;;;;;;;3.00;2.43;;;;;;;;;;5042855;28;20211;-79
2023/12/13 14:15:11;;;;;;;2.43;1.80;;;;;;;;;;5041325;28;20237;-77
2023/12/13 14:17:38;;;;;;;1.50;1.40;;;;;;;;;;5025551;28;20206;-77
2023/12/13 14:20:06;;;;;;;1.80;1.40;;;;;;;;;;5049696;28;20295;-79
2023/12/13 14:22:36;;;;;;;2.07;1.80;;;;;;;;;;5042579;28;20201;-79
2023/12/13 14:25:05;;;;;;;2.10;1.90;;;;;;;;;;5038121;28;20230;-78
2023/12/13 14:27:32;;;;;;;2.33;2.13;;;;;;;;;;5035275;28;20215;-79
2023/12/13 14:30:00;;;;;;;1.80;1.70;;;;;;;;;;5050115;28;20210;-78
2023/12/13 14:32:27;;;;;;;2.37;2.00;;;;;;;;;;5044051;28;20214;-81
2023/12/13 14:34:54;;;;;;;1.80;1.70;;;;;;;;;;5028793;28;20240;-76
2023/12/13 14:37:22;;;;;;;2.63;1.90;;;;;;;;;;5026834;28;20209;-78
2023/12/13 14:39:49;;;;;;;1.83;1.73;;;;;;;;;;5043359;28;20204;-78
2023/12/13 14:42:17;;;;;;;2.70;2.00;;;;;;;;;;5046448;28;20695;-82
2023/12/13 14:44:44;;;;;;;4.43;2.43;;;;;;;;;;5048650;28;20219;-77
2023/12/13 14:47:12;;;;;;;2.23;2.03;;;;;;;;;;5044454;28;20246;-78
2023/12/13 14:49:40;;;;;;;1.73;1.63;;;;;;;;;;5045208;28;20576;-79